Time;durP1;ratioP1;P1;durP2;ratioP2;P2;SDS_P1;SDS_P2;PMS_P1;PMS_P2;Temp;Humidity;BMP_temperature;BMP_pressure;BME280_temperature;BME280_humidity;BME280_pressure;Samples;Min_cycle;Max_cycle;Signal;HPM_P1;HPM_P2
2021/06/13 09:10:25;;;;;;;5.22;2.77;;;;;;;15.71;71.38;97602.02;1890736;76;22690;-62
2021/06/13 09:13:17;;;;;;;5.92;2.50;;;;;;;15.83;70.09;97606.70;1861531;77;20848;-63
2021/06/13 09:15:56;;;;;;;5.60;2.47;;;;;;;15.93;69.71;97604.91;1861628;77;21106;-62
2021/06/13 09:18:39;;;;;;;4.53;2.30;;;;;;;16.08;67.90;97602.38;1861876;77;21375;-61
2021/06/13 09:21:15;;;;;;;4.92;2.30;;;;;;;16.18;66.89;97615.44;1861447;77;20943;-65
2021/06/13 09:23:42;;;;;;;5.58;2.35;;;;;;;16.24;66.19;97614.11;1856438;77;20923;-62
2021/06/13 09:26:17;;;;;;;11.63;2.90;;;;;;;16.21;62.61;97612.07;1861831;77;21406;-64
2021/06/13 09:28:46;;;;;;;7.65;2.72;;;;;;;16.02;63.15;97604.25;1861630;77;21107;-68
2021/06/13 09:31:23;;;;;;;6.45;2.75;;;;;;;15.84;63.93;97625.27;1861425;77;20868;-63
2021/06/13 09:33:52;;;;;;;10.23;3.00;;;;;;;15.62;63.03;97626.41;1861484;77;20864;-69
2021/06/13 09:36:25;;;;;;;6.67;2.98;;;;;;;15.39;64.69;97622.45;1861469;77;20922;-70
2021/06/13 09:39:05;;;;;;;8.13;2.58;;;;;;;15.32;65.74;97625.45;1861602;77;20895;-68
2021/06/13 09:41:39;;;;;;;7.22;3.05;;;;;;;15.35;66.14;97624.80;1861701;77;21823;-67
2021/06/13 09:44:15;;;;;;;5.17;2.55;;;;;;;15.61;66.54;97617.30;1861819;77;20992;-66
2021/06/13 09:46:44;;;;;;;7.53;2.95;;;;;;;15.84;65.63;97626.61;1861549;77;20891;-66
2021/06/13 09:49:17;;;;;;;5.65;2.90;;;;;;;15.97;65.41;97621.47;1861926;77;20915;-67
2021/06/13 09:51:50;;;;;;;7.62;3.22;;;;;;;16.07;64.76;97618.91;1861565;77;21013;-68
2021/06/13 09:54:24;;;;;;;9.93;3.42;;;;;;;16.09;65.01;97628.25;1862066;77;21439;-66
2021/06/13 09:56:53;;;;;;;6.87;2.72;;;;;;;16.14;63.11;97619.94;1861490;77;20864;-66
2021/06/13 09:59:29;;;;;;;7.03;2.55;;;;;;;16.24;61.58;97622.22;1861739;77;20891;-67
2021/06/13 10:01:59;;;;;;;7.58;2.77;;;;;;;16.38;61.40;97630.80;1861472;77;21007;-68
2021/06/13 10:04:31;;;;;;;6.28;2.80;;;;;;;16.49;60.89;97629.02;1861766;77;20971;-67
2021/06/13 10:07:18;;;;;;;9.43;2.90;;;;;;;16.62;60.03;97639.52;1861541;77;21088;-68
2021/06/13 10:09:50;;;;;;;5.92;2.58;;;;;;;16.71;60.30;97632.64;1854211;77;21502;-66
2021/06/13 10:12:19;;;;;;;8.75;2.52;;;;;;;16.86;59.69;97617.09;1849986;77;21376;-67
2021/06/13 10:14:51;;;;;;;5.85;2.58;;;;;;;17.04;59.38;97614.36;1849833;77;20884;-70
2021/06/13 10:17:17;;;;;;;5.45;2.65;;;;;;;17.20;58.65;97604.97;1850240;77;21410;-69
2021/06/13 10:19:47;;;;;;;4.12;2.35;;;;;;;17.34;60.51;97611.58;1854196;77;21103;-69
2021/06/13 10:22:15;;;;;;;7.85;2.70;;;;;;;17.52;56.95;97616.20;1849198;77;21395;-67
2021/06/13 10:24:44;;;;;;;8.88;3.10;;;;;;;17.62;56.60;97616.48;1849226;77;20857;-67
2021/06/13 10:27:17;;;;;;;6.22;2.30;;;;;;;17.70;54.14;97622.89;1849086;77;20841;-68
2021/06/13 10:29:49;;;;;;;6.30;2.20;;;;;;;17.75;53.66;97616.67;1848294;77;21461;-67
2021/06/13 10:32:20;;;;;;;9.13;2.62;;;;;;;17.66;52.54;97610.59;1849161;77;21083;-66
2021/06/13 10:34:46;;;;;;;5.42;2.45;;;;;;;17.48;53.32;97608.49;1849042;77;20939;-67
2021/06/13 10:37:15;;;;;;;4.58;2.60;;;;;;;17.39;53.83;97610.00;1849202;77;21010;-66
2021/06/13 10:39:43;;;;;;;5.28;2.52;;;;;;;17.39;57.42;97628.95;1849195;77;20845;-67
2021/06/13 10:42:14;;;;;;;6.60;2.62;;;;;;;17.49;54.81;97612.23;1849573;77;21388;-67
2021/06/13 10:44:48;;;;;;;4.72;2.45;;;;;;;17.68;56.68;97624.60;1848970;77;21111;-68
2021/06/13 10:47:16;;;;;;;4.85;2.40;;;;;;;17.94;55.06;97606.53;1848875;77;21426;-68
2021/06/13 10:49:48;;;;;;;5.05;2.95;;;;;;;18.17;52.18;97605.38;1849197;77;20872;-67
2021/06/13 10:52:20;;;;;;;6.05;2.00;;;;;;;18.08;52.59;97616.39;1849213;77;21518;-66
2021/06/13 10:54:54;;;;;;;5.62;2.25;;;;;;;17.84;52.90;97629.27;1849829;77;20966;-69
2021/06/13 10:57:27;;;;;;;3.70;1.60;;;;;;;17.63;53.61;97635.67;1849393;77;21064;-69
2021/06/13 11:00:24;;;;;;;5.33;1.90;;;;;;;17.41;52.86;97633.45;1849630;77;21038;-66
2021/06/13 11:02:57;;;;;;;3.40;2.10;;;;;;;17.18;53.43;97641.84;1849446;77;20868;-66
2021/06/13 11:05:41;;;;;;;5.62;2.08;;;;;;;16.95;54.59;97642.11;1848464;77;20896;-66
2021/06/13 11:08:09;;;;;;;4.92;2.33;;;;;;;16.77;56.44;97636.72;1849137;77;20920;-69
2021/06/13 11:10:37;;;;;;;3.70;2.15;;;;;;;16.65;57.57;97628.02;1839933;77;20912;-65
2021/06/13 11:13:14;;;;;;;5.22;2.17;;;;;;;16.74;58.75;97629.27;1838486;78;20943;-66
2021/06/13 11:15:45;;;;;;;5.50;2.45;;;;;;;17.01;58.80;97628.00;1837104;78;20869;-66
2021/06/13 11:18:18;;;;;;;5.25;2.40;;;;;;;17.31;57.21;97618.27;1838643;77;20889;-68
2021/06/13 11:21:05;;;;;;;6.40;2.42;;;;;;;17.43;57.37;97619.00;1838677;78;20959;-68
2021/06/13 11:23:38;;;;;;;5.92;2.62;;;;;;;17.57;57.58;97623.49;1838554;78;21122;-66
2021/06/13 11:26:06;;;;;;;5.25;2.42;;;;;;;17.68;56.25;97616.48;1838593;78;20939;-67
2021/06/13 11:28:41;;;;;;;5.50;2.40;;;;;;;17.81;57.06;97605.56;1838604;78;20896;-67
2021/06/13 11:31:16;;;;;;;7.70;2.67;;;;;;;18.01;57.05;97604.58;1838817;78;20960;-67
2021/06/13 11:33:48;;;;;;;5.12;2.30;;;;;;;18.19;57.76;97596.33;1838696;78;21423;-67
2021/06/13 11:36:25;;;;;;;5.53;2.50;;;;;;;18.51;56.58;97602.02;1838774;78;21055;-64
2021/06/13 11:39:10;;;;;;;6.80;2.33;;;;;;;18.73;55.57;97593.23;1837913;78;21415;-65
2021/06/13 11:41:44;;;;;;;6.67;2.30;;;;;;;18.70;53.70;97599.95;1838525;78;20876;-68
2021/06/13 11:44:24;;;;;;;6.40;2.45;;;;;;;18.37;54.30;97615.20;1838529;77;20892;-64
2021/06/13 11:46:53;;;;;;;6.03;2.45;;;;;;;18.03;55.74;97629.40;1834736;78;20888;-67
2021/06/13 11:49:43;;;;;;;5.58;2.58;;;;;;;17.67;56.29;97625.72;1838449;77;20865;-68
2021/06/13 11:52:09;;;;;;;7.60;2.67;;;;;;;17.41;57.16;97621.27;1838501;78;20861;-65
2021/06/13 11:54:44;;;;;;;6.25;2.92;;;;;;;17.26;58.56;97623.35;1838525;77;20909;-67
2021/06/13 11:57:21;;;;;;;7.33;2.90;;;;;;;17.28;59.95;97626.50;1838439;78;20916;-67
2021/06/13 11:59:48;;;;;;;4.50;2.30;;;;;;;17.40;60.06;97618.35;1838697;77;26348;-68
2021/06/13 12:02:22;;;;;;;5.17;2.37;;;;;;;17.48;59.32;97614.70;1838728;78;21424;-66
2021/06/13 12:04:49;;;;;;;6.03;2.00;;;;;;;17.50;58.85;97617.84;1838461;77;20908;-67
2021/06/13 12:07:17;;;;;;;3.25;1.72;;;;;;;17.41;58.82;97634.80;1838705;78;21435;-69
2021/06/13 12:09:48;;;;;;;3.80;1.75;;;;;;;17.06;58.70;97661.59;1842400;77;21524;-69
2021/06/13 12:12:19;;;;;;;7.28;1.82;;;;;;;16.50;61.21;97671.13;1849451;77;20927;-68
2021/06/13 12:14:46;;;;;;;5.92;1.50;;;;;;;15.97;64.18;97675.48;1849046;77;21116;-68
2021/06/13 12:17:23;;;;;;;2.72;1.20;;;;;;;15.46;65.97;97678.63;1849102;77;20896;-68
2021/06/13 12:19:52;;;;;;;4.75;1.50;;;;;;;14.91;68.56;97662.59;1849189;77;20984;-66
2021/06/13 12:22:42;;;;;;;2.98;1.60;;;;;;;14.38;70.55;97663.95;1849156;77;21400;-68
2021/06/13 12:28:06;;;;;;;3.37;1.55;;;;;;;13.83;73.51;97672.50;1849987;77;21096;-66
2021/06/13 12:30:34;;;;;;;5.28;1.90;;;;;;;13.67;74.59;97667.38;1848966;77;21377;-65
2021/06/13 12:33:06;;;;;;;3.62;1.72;;;;;;;13.75;75.69;97662.55;1849356;77;21364;-70
2021/06/13 12:35:46;;;;;;;4.67;1.67;;;;;;;14.00;76.19;97660.92;1849253;77;20931;-66
2021/06/13 12:38:18;;;;;;;4.37;1.82;;;;;;;14.52;75.92;97654.86;1849050;77;20915;-66
2021/06/13 12:40:52;;;;;;;3.02;1.70;;;;;;;15.19;74.58;97646.73;1849047;77;21071;-67
2021/06/13 12:43:43;;;;;;;2.90;1.60;;;;;;;15.88;73.58;97651.83;1848780;77;20919;-66
2021/06/13 12:46:11;;;;;;;4.42;1.92;;;;;;;16.50;72.64;97642.19;1849072;77;20907;-68
2021/06/13 12:48:40;;;;;;;4.17;2.00;;;;;;;17.06;70.40;97640.52;1848979;77;20881;-65
2021/06/13 12:51:07;;;;;;;4.90;1.72;;;;;;;17.53;70.52;97635.36;1849054;77;20900;-67
2021/06/13 12:53:44;;;;;;;4.25;2.10;;;;;;;17.84;68.89;97640.09;1849112;77;21056;-66
2021/06/13 12:56:10;;;;;;;5.00;1.62;;;;;;;18.23;66.11;97635.17;1848543;77;27021;-66
2021/06/13 12:58:41;;;;;;;3.30;1.85;;;;;;;18.55;66.33;97627.86;1849134;77;21391;-67
2021/06/13 13:01:07;;;;;;;5.78;1.45;;;;;;;18.75;63.19;97625.43;1848956;77;20924;-66
2021/06/13 13:03:46;;;;;;;4.53;1.92;;;;;;;18.62;63.24;97630.19;1849359;77;20872;-67
2021/06/13 13:06:13;;;;;;;8.58;1.80;;;;;;;18.75;61.07;97630.86;1849052;77;21082;-69
2021/06/13 13:08:48;;;;;;;6.87;1.55;;;;;;;18.74;59.89;97624.67;1849038;77;21438;-65
2021/06/13 13:11:29;;;;;;;4.30;1.80;;;;;;;18.69;60.28;97622.78;1849594;77;20900;-68
2021/06/13 13:13:59;;;;;;;5.42;2.02;;;;;;;18.41;59.83;97629.06;1849917;77;21466;-66
2021/06/13 13:16:29;;;;;;;3.55;1.70;;;;;;;18.33;58.25;97618.38;1849638;77;21419;-67
2021/06/13 13:18:58;;;;;;;3.70;1.37;;;;;;;18.15;59.21;97623.91;1849758;77;21112;-70
2021/06/13 13:21:33;;;;;;;3.47;1.60;;;;;;;18.19;58.16;97622.08;1849620;77;20911;-66
2021/06/13 13:24:02;;;;;;;2.92;1.57;;;;;;;18.18;58.10;97619.16;1850036;77;20899;-69
2021/06/13 13:26:29;;;;;;;3.47;1.50;;;;;;;18.16;57.06;97624.14;1849670;77;20986;-70
2021/06/13 13:28:57;;;;;;;3.92;1.87;;;;;;;18.01;58.46;97620.27;1849827;77;21502;-67
2021/06/13 13:31:27;;;;;;;4.55;1.90;;;;;;;17.92;59.21;97621.56;1849571;77;21400;-67
2021/06/13 13:34:02;;;;;;;4.62;1.62;;;;;;;17.92;59.04;97621.00;1850034;77;20861;-66
2021/06/13 13:36:44;;;;;;;4.33;1.40;;;;;;;18.18;59.19;97607.73;1849542;77;21407;-66
2021/06/13 13:39:16;;;;;;;6.00;1.40;;;;;;;18.48;57.26;97600.00;1849705;77;20920;-66
2021/06/13 13:42:00;;;;;;;3.58;1.40;;;;;;;18.93;57.66;97607.09;1849750;77;20903;-69
2021/06/13 13:44:30;;;;;;;3.00;1.22;;;;;;;19.27;55.41;97615.56;1849671;77;21193;-69
2021/06/13 13:47:04;;;;;;;3.05;1.32;;;;;;;19.13;55.48;97610.05;1849614;77;20881;-67
2021/06/13 13:49:31;;;;;;;2.97;1.43;;;;;;;19.26;55.37;97610.73;1850308;77;20899;-68
2021/06/13 13:51:59;;;;;;;3.17;1.40;;;;;;;19.54;53.11;97601.05;1849680;77;20908;-69
2021/06/13 13:54:32;;;;;;;4.35;1.70;;;;;;;19.88;53.35;97606.19;1850031;77;21517;-68
2021/06/13 13:57:02;;;;;;;2.83;1.60;;;;;;;20.10;51.56;97614.37;1849868;77;21163;-66
2021/06/13 13:59:30;;;;;;;2.95;1.30;;;;;;;20.32;52.64;97613.64;1850004;77;20836;-68
2021/06/13 14:01:57;;;;;;;4.35;1.55;;;;;;;20.72;51.84;97603.61;1849854;77;20907;-67
2021/06/13 14:04:24;;;;;;;3.27;1.40;;;;;;;20.76;51.58;97594.13;1849856;77;21424;-67
2021/06/13 14:06:52;;;;;;;3.65;1.55;;;;;;;20.42;51.05;97603.50;1849883;77;20860;-69
2021/06/13 14:09:19;;;;;;;3.30;0.93;;;;;;;19.85;53.11;97629.44;1849725;77;21152;-67
2021/06/13 14:11:48;;;;;;;1.20;0.50;;;;;;;19.13;52.19;97645.34;1849231;77;20912;-66
2021/06/13 14:14:19;;;;;;;0.90;0.30;;;;;;;18.38;50.70;97639.80;1849137;77;20943;-67
2021/06/13 14:16:46;;;;;;;0.20;0.20;;;;;;;17.82;51.48;97643.72;1849434;77;21510;-65
2021/06/13 14:19:15;;;;;;;1.25;0.20;;;;;;;17.39;52.90;97643.83;1849291;77;21379;-69
2021/06/13 14:21:42;;;;;;;0.93;0.30;;;;;;;17.10;53.84;97643.55;1849660;77;21862;-67
2021/06/13 14:24:10;;;;;;;1.20;0.40;;;;;;;16.79;55.51;97646.63;1849161;77;20895;-67
2021/06/13 14:26:37;;;;;;;0.50;0.30;;;;;;;16.54;56.17;97646.37;1849436;77;21431;-66
2021/06/13 14:29:04;;;;;;;2.72;0.65;;;;;;;16.49;57.85;97645.23;1849197;77;20870;-67
2021/06/13 14:31:30;;;;;;;1.47;0.30;;;;;;;16.55;58.06;97646.61;1849557;77;20864;-67
2021/06/13 14:33:57;;;;;;;0.70;0.30;;;;;;;16.60;58.82;97649.09;1849235;77;21109;-65
2021/06/13 14:36:24;;;;;;;1.30;0.30;;;;;;;16.56;58.18;97653.61;1849465;77;20907;-69
2021/06/13 14:38:52;;;;;;;2.42;0.50;;;;;;;16.39;59.78;97648.58;1849261;77;20888;-68
2021/06/13 14:41:19;;;;;;;0.70;0.55;;;;;;;16.15;59.40;97658.00;1849530;77;20888;-68
2021/06/13 14:43:46;;;;;;;1.32;0.70;;;;;;;15.84;61.31;97654.97;1849441;77;21509;-66
2021/06/13 14:46:13;;;;;;;1.10;0.62;;;;;;;15.67;62.13;97660.52;1849226;77;21099;-69
2021/06/13 14:48:40;;;;;;;1.67;0.98;;;;;;;15.58;63.32;97653.84;1849347;77;20873;-67
2021/06/13 14:51:07;;;;;;;2.15;1.30;;;;;;;15.47;64.05;97668.87;1849178;77;20868;-66
2021/06/13 14:53:34;;;;;;;2.42;1.10;;;;;;;15.35;64.86;97666.63;1849163;77;20907;-65
2021/06/13 14:56:01;;;;;;;2.85;1.42;;;;;;;15.29;65.43;97658.47;1849243;77;20915;-69
2021/06/13 14:58:29;;;;;;;3.15;1.50;;;;;;;15.29;66.25;97657.91;1849300;77;21864;-71
2021/06/13 15:00:56;;;;;;;4.15;1.57;;;;;;;15.37;66.84;97654.94;1849004;77;20884;-67
2021/06/13 15:03:24;;;;;;;3.83;1.32;;;;;;;15.46;67.06;97649.73;1849186;77;20919;-68
2021/06/13 15:05:51;;;;;;;3.33;1.40;;;;;;;15.81;67.10;97647.52;1849461;77;20920;-66
2021/06/13 15:08:18;;;;;;;2.67;1.27;;;;;;;16.26;66.37;97646.98;1849221;77;20924;-68
2021/06/13 15:10:45;;;;;;;2.70;1.40;;;;;;;16.61;65.61;97645.25;1844532;77;21090;-66
2021/06/13 15:13:12;;;;;;;3.10;1.37;;;;;;;16.70;64.71;97643.25;1838783;78;21423;-65
2021/06/13 15:15:39;;;;;;;4.53;2.30;;;;;;;16.70;64.94;97645.95;1838559;78;20959;-70
2021/06/13 15:18:06;;;;;;;3.37;1.52;;;;;;;16.68;65.13;97656.30;1838485;78;20992;-67
2021/06/13 15:20:37;;;;;;;3.52;1.22;;;;;;;16.67;64.58;97650.67;1838464;77;20881;-67
2021/06/13 15:23:05;;;;;;;3.27;1.50;;;;;;;16.58;63.96;97648.06;1838340;77;21085;-66
2021/06/13 15:25:33;;;;;;;3.62;1.40;;;;;;;16.51;63.31;97647.83;1838633;78;21352;-68
2021/06/13 15:27:59;;;;;;;2.75;1.40;;;;;;;16.43;63.05;97648.16;1838784;77;20869;-67
2021/06/13 15:30:27;;;;;;;4.58;1.52;;;;;;;16.31;63.09;97645.42;1838461;78;20877;-68
2021/06/13 15:32:55;;;;;;;2.30;0.90;;;;;;;16.14;63.63;97641.55;1838443;78;20880;-70
2021/06/13 15:35:27;;;;;;;1.80;1.02;;;;;;;15.95;64.42;97649.38;1838417;78;21172;-67
2021/06/13 15:37:54;;;;;;;1.60;1.00;;;;;;;15.85;64.90;97652.48;1838595;78;20861;-68
2021/06/13 15:40:21;;;;;;;5.85;1.12;;;;;;;15.79;65.45;97654.37;1838521;78;20896;-69
2021/06/13 15:42:49;;;;;;;1.55;1.15;;;;;;;15.63;65.77;97655.55;1838395;78;20916;-66
2021/06/13 15:45:17;;;;;;;4.17;1.40;;;;;;;15.50;66.24;97645.25;1838622;78;20932;-69
2021/06/13 15:47:44;;;;;;;3.90;1.30;;;;;;;15.40;67.02;97640.79;1838516;78;21111;-66
